Klamath Falls, Oregon
Current Conditions -  °F | °C
As of 5:53 PM on Friday 28 Nov 2014 (Local Time) from KLMT Reporting Station
Light Rain Light Rain  
Wind Chill: 36°   Ceiling: 5500
Heat Index: 43°   Visibility: 10mi
Dew Point: 35°   Wind: 14mph
Humidity: 74%   Direction: 190°S
Pressure: 29.72"   Gusts: NA
Location:  42.22°N, 121.78°W
Report Text: KLMT 290153Z 19012KT 10SM -RA FEW037 BKN055 OVC070 06/02 A2972 RMK AO2 RAB50 SLP057 P0000 T00610017
Loading
Personal Weather Stations






























Interactive Weather Map New forecast layout! Learn more

10-Day Weather Forecast

Advertisements
Track Severe Weather on mobile